Time;durP1;ratioP1;P1;durP2;ratioP2;P2;SDS_P1;SDS_P2;PMS_P1;PMS_P2;Temp;Humidity;BMP_temperature;BMP_pressure;BME280_temperature;BME280_humidity;BME280_pressure;Samples;Min_cycle;Max_cycle;Signal;HPM_P1;HPM_P2
2021/06/20 00:01:47;;;;;;;;;;;28.50;84.20;;;;;;1868374;77;20126;-94
2021/06/20 00:04:17;;;;;;;;;;;28.60;83.60;;;;;;1876262;75;20153;-95
2021/06/20 00:06:48;;;;;;;;;;;28.60;83.30;;;;;;1874871;75;20189;-93
2021/06/20 00:09:18;;;;;;;;;;;28.70;83.00;;;;;;1857151;77;20165;-94
2021/06/20 00:11:48;;;;;;;;;;;28.70;83.30;;;;;;1852965;77;20177;-94
2021/06/20 00:14:27;;;;;;;;;;;28.70;83.30;;;;;;1865885;75;20158;-95
2021/06/20 00:16:57;;;;;;;;;;;28.70;83.50;;;;;;1866759;77;20165;-92
2021/06/20 00:19:31;;;;;;;;;;;28.70;83.40;;;;;;1866642;77;20191;-94
2021/06/20 00:21:59;;;;;;;;;;;28.80;82.80;;;;;;1867666;75;20252;-92
2021/06/20 00:24:29;;;;;;;;;;;28.80;82.30;;;;;;1879588;75;20139;-91
2021/06/20 00:26:59;;;;;;;;;;;28.80;81.80;;;;;;1900749;74;20251;-87
2021/06/20 00:29:28;;;;;;;;;;;28.80;81.20;;;;;;1868463;77;20212;-93
2021/06/20 00:31:58;;;;;;;;;;;28.90;82.10;;;;;;1865399;76;20268;-85
2021/06/20 00:34:27;;;;;;;;;;;28.90;81.30;;;;;;1860949;75;20138;-86
2021/06/20 00:36:57;;;;;;;;;;;28.90;81.40;;;;;;1864217;75;20614;-86
2021/06/20 00:39:27;;;;;;;;;;;29.00;81.10;;;;;;1854102;76;20138;-85
2021/06/20 00:41:56;;;;;;;;;;;29.00;80.70;;;;;;1852150;76;20161;-84
2021/06/20 00:44:26;;;;;;;;;;;29.10;80.90;;;;;;1851248;76;20170;-85
2021/06/20 00:46:56;;;;;;;;;;;29.20;80.40;;;;;;1853176;77;20240;-85
2021/06/20 00:49:26;;;;;;;;;;;29.30;80.30;;;;;;1853021;76;20208;-85
2021/06/20 00:51:55;;;;;;;;;;;29.40;80.00;;;;;;1856368;76;20308;-84
2021/06/20 00:54:25;;;;;;;;;;;29.40;79.00;;;;;;1888929;74;20304;-83
2021/06/20 00:56:54;;;;;;;;;;;29.60;79.10;;;;;;1878611;76;20263;-86
2021/06/20 00:59:24;;;;;;;;;;;29.70;78.40;;;;;;1839251;75;20188;-84
2021/06/20 01:01:54;;;;;;;;;;;29.80;77.30;;;;;;1892849;74;20176;-84
2021/06/20 01:04:24;;;;;;;;;;;29.80;77.10;;;;;;1865732;77;20217;-85
2021/06/20 01:06:54;;;;;;;;;;;29.90;76.20;;;;;;1879435;74;20427;-85
2021/06/20 01:09:23;;;;;;;;;;;30.00;76.30;;;;;;1895227;74;20689;-83
2021/06/20 01:11:53;;;;;;;;;;;30.10;75.70;;;;;;1912155;74;20380;-83
2021/06/20 01:14:23;;;;;;;;;;;30.20;76.00;;;;;;1903105;74;20136;-84
2021/06/20 01:16:53;;;;;;;;;;;30.30;74.50;;;;;;1894348;74;20183;-83
2021/06/20 01:19:23;;;;;;;;;;;30.40;74.60;;;;;;1896592;74;20281;-84
2021/06/20 01:21:52;;;;;;;;;;;30.50;73.20;;;;;;1897015;76;20163;-85
2021/06/20 01:24:22;;;;;;;;;;;30.60;72.70;;;;;;1895588;74;20194;-84
2021/06/20 01:26:52;;;;;;;;;;;30.70;70.60;;;;;;1894651;74;20132;-85
2021/06/20 01:29:23;;;;;;;;;;;30.90;69.00;;;;;;1897649;74;20565;-87
2021/06/20 01:31:52;;;;;;;;;;;30.90;68.60;;;;;;1896429;74;20466;-85
2021/06/20 01:34:24;;;;;;;;;;;31.00;67.20;;;;;;1898990;74;20492;-86
2021/06/20 01:36:53;;;;;;;;;;;31.10;66.90;;;;;;1907407;74;20221;-84
2021/06/20 01:39:23;;;;;;;;;;;31.10;66.70;;;;;;1896617;74;20202;-86
2021/06/20 01:41:53;;;;;;;;;;;31.20;66.90;;;;;;1896433;74;20505;-86
2021/06/20 01:44:22;;;;;;;;;;;31.40;65.50;;;;;;1896954;76;20179;-86
2021/06/20 01:46:52;;;;;;;;;;;31.50;66.20;;;;;;1895252;76;20171;-85
2021/06/20 01:49:22;;;;;;;;;;;31.60;65.50;;;;;;1905594;74;20226;-85
2021/06/20 01:51:52;;;;;;;;;;;31.70;64.00;;;;;;1899402;74;20210;-84
2021/06/20 01:54:21;;;;;;;;;;;31.80;64.30;;;;;;1898281;76;20160;-84
2021/06/20 01:56:51;;;;;;;;;;;31.90;63.00;;;;;;1898087;76;20229;-85
2021/06/20 01:59:25;;;;;;;;;;;32.00;63.50;;;;;;1896212;74;20215;-87
2021/06/20 02:01:54;;;;;;;;;;;32.00;62.80;;;;;;1895575;75;20143;-86
2021/06/20 02:04:25;;;;;;;;;;;32.10;63.30;;;;;;1920236;74;20161;-86
2021/06/20 02:06:54;;;;;;;;;;;32.20;62.70;;;;;;1917196;74;20215;-79
2021/06/20 02:09:24;;;;;;;;;;;32.30;62.40;;;;;;1910920;74;20167;-80
2021/06/20 02:11:54;;;;;;;;;;;32.40;62.00;;;;;;1911535;74;20148;-81
2021/06/20 02:14:24;;;;;;;;;;;32.50;61.00;;;;;;1916884;74;20203;-82
2021/06/20 02:17:04;;;;;;;;;;;32.50;60.70;;;;;;1909859;74;20160;-80
2021/06/20 02:19:34;;;;;;;;;;;32.50;60.40;;;;;;1915515;74;20214;-80
2021/06/20 02:22:06;;;;;;;;;;;32.50;60.70;;;;;;1906304;74;20164;-80
2021/06/20 02:24:38;;;;;;;;;;;32.60;60.90;;;;;;1910317;74;20216;-81
2021/06/20 02:27:12;;;;;;;;;;;32.60;60.70;;;;;;1914820;74;20202;-80
2021/06/20 02:29:41;;;;;;;;;;;32.80;60.50;;;;;;1908269;74;20701;-82
2021/06/20 02:32:13;;;;;;;;;;;32.90;60.00;;;;;;1894914;76;20195;-81
2021/06/20 02:34:44;;;;;;;;;;;33.00;59.10;;;;;;1896054;74;20584;-82
2021/06/20 02:37:15;;;;;;;;;;;33.00;59.00;;;;;;1898152;74;20174;-80
2021/06/20 02:39:45;;;;;;;;;;;33.10;58.70;;;;;;1881380;74;20232;-81
2021/06/20 02:42:18;;;;;;;;;;;33.10;59.00;;;;;;1831243;77;20263;-82
2021/06/20 02:44:56;;;;;;;;;;;33.10;58.50;;;;;;1797212;78;20279;-80
2021/06/20 02:47:19;;;;;;;;;;;33.20;57.50;;;;;;1825266;77;20219;-82
2021/06/20 02:49:51;;;;;;;;;;;33.20;57.30;;;;;;1827246;77;20239;-81
2021/06/20 02:52:22;;;;;;;;;;;33.30;56.80;;;;;;1799357;78;20454;-81
2021/06/20 02:54:52;;;;;;;;;;;33.30;56.20;;;;;;1819872;79;20243;-78
2021/06/20 02:57:23;;;;;;;;;;;33.30;56.40;;;;;;1818721;78;20247;-85
2021/06/20 02:59:53;;;;;;;;;;;33.20;57.00;;;;;;1817449;77;20211;-84
2021/06/20 03:02:24;;;;;;;;;;;33.20;57.50;;;;;;1820343;77;20129;-83
2021/06/20 03:04:54;;;;;;;;;;;33.20;57.80;;;;;;1817463;79;20125;-84
2021/06/20 03:07:24;;;;;;;;;;;33.40;57.90;;;;;;1861795;75;20216;-82
2021/06/20 03:09:53;;;;;;;;;;;33.50;57.60;;;;;;1858986;76;20237;-80
2021/06/20 03:12:24;;;;;;;;;;;33.70;56.90;;;;;;1833522;77;20201;-82
2021/06/20 03:14:55;;;;;;;;;;;33.70;56.70;;;;;;1793835;78;20271;-83
2021/06/20 03:17:25;;;;;;;;;;;33.70;56.30;;;;;;1792231;78;20217;-78
2021/06/20 03:19:55;;;;;;;;;;;33.80;56.20;;;;;;1814130;79;20619;-81
2021/06/20 03:22:25;;;;;;;;;;;33.80;56.40;;;;;;1815549;77;20264;-81
2021/06/20 03:24:56;;;;;;;;;;;33.80;55.40;;;;;;1824716;77;20210;-80
2021/06/20 03:27:25;;;;;;;;;;;33.80;56.40;;;;;;1808717;77;20190;-81
2021/06/20 03:29:55;;;;;;;;;;;33.80;55.80;;;;;;1810002;77;20478;-82
2021/06/20 03:32:25;;;;;;;;;;;33.80;55.90;;;;;;1813577;77;20229;-78
2021/06/20 03:34:54;;;;;;;;;;;33.80;56.00;;;;;;1826816;77;20168;-79
2021/06/20 03:37:24;;;;;;;;;;;33.90;55.30;;;;;;1826847;78;20902;-79
2021/06/20 03:39:54;;;;;;;;;;;33.90;55.60;;;;;;1843091;77;20538;-79
2021/06/20 03:42:28;;;;;;;;;;;34.10;55.70;;;;;;1860968;77;20499;-80
2021/06/20 03:44:55;;;;;;;;;;;34.10;55.80;;;;;;1858270;77;20212;-80
2021/06/20 03:47:24;;;;;;;;;;;34.20;55.30;;;;;;1856260;77;20192;-80
2021/06/20 03:49:54;;;;;;;;;;;34.20;55.50;;;;;;1860008;77;20201;-79
2021/06/20 03:52:25;;;;;;;;;;;34.20;55.30;;;;;;1861152;77;20236;-80
2021/06/20 03:54:55;;;;;;;;;;;34.30;55.30;;;;;;1859367;76;20264;-79
2021/06/20 03:57:25;;;;;;;;;;;34.30;54.90;;;;;;1861110;77;20279;-81
2021/06/20 03:59:55;;;;;;;;;;;34.40;54.90;;;;;;1858225;77;20250;-81
2021/06/20 04:02:25;;;;;;;;;;;34.40;55.00;;;;;;1861209;77;20553;-80
2021/06/20 04:04:55;;;;;;;;;;;34.30;55.30;;;;;;1860087;77;20335;-80
2021/06/20 04:07:24;;;;;;;;;;;34.20;55.10;;;;;;1861041;77;20288;-81
2021/06/20 04:09:54;;;;;;;;;;;34.10;55.60;;;;;;1859955;77;20227;-78
2021/06/20 04:12:24;;;;;;;;;;;34.20;56.00;;;;;;1860848;77;20271;-79
2021/06/20 04:14:53;;;;;;;;;;;34.20;55.70;;;;;;1855363;76;20164;-79
2021/06/20 04:17:23;;;;;;;;;;;34.30;55.40;;;;;;1858446;77;20209;-79
2021/06/20 04:19:53;;;;;;;;;;;34.30;54.90;;;;;;1863549;76;20318;-79
2021/06/20 04:22:23;;;;;;;;;;;34.30;54.80;;;;;;1848113;77;20316;-78
2021/06/20 04:24:52;;;;;;;;;;;34.30;55.50;;;;;;1860451;77;20209;-78
2021/06/20 04:27:22;;;;;;;;;;;34.30;55.30;;;;;;1912310;75;20563;-77
2021/06/20 04:29:51;;;;;;;;;;;34.40;55.90;;;;;;1912114;75;20142;-80
2021/06/20 04:32:22;;;;;;;;;;;34.50;55.40;;;;;;1906473;75;20169;-81
2021/06/20 04:34:52;;;;;;;;;;;34.60;54.80;;;;;;1907948;74;20157;-80
2021/06/20 04:37:22;;;;;;;;;;;34.70;55.10;;;;;;1904707;75;20185;-79
2021/06/20 04:39:51;;;;;;;;;;;;;;;;;;1912491;75;20239;-78
2021/06/20 04:42:32;;;;;;;;;;;35.00;53.60;;;;;;1911940;75;20177;-80
2021/06/20 04:44:55;;;;;;;;;;;35.00;53.90;;;;;;1909014;74;20722;-79
2021/06/20 04:47:27;;;;;;;;;;;35.00;54.40;;;;;;1908454;75;20257;-78
2021/06/20 04:49:56;;;;;;;;;;;35.00;53.20;;;;;;1912407;75;20169;-79
2021/06/20 04:52:26;;;;;;;;;;;35.00;54.20;;;;;;1911500;75;20227;-79
2021/06/20 04:54:56;;;;;;;;;;;35.00;54.50;;;;;;1909298;75;20201;-77
2021/06/20 04:57:27;;;;;;;;;;;35.10;54.50;;;;;;1903211;75;20177;-78
2021/06/20 05:00:00;;;;;;;;;;;35.20;53.50;;;;;;1909207;75;20177;-78
2021/06/20 05:02:34;;;;;;;;;;;35.20;53.50;;;;;;1906489;74;20512;-80
2021/06/20 05:05:01;;;;;;;;;;;35.20;53.10;;;;;;1910152;75;20168;-81
2021/06/20 05:07:30;;;;;;;;;;;35.10;54.00;;;;;;1908910;74;20241;-80
2021/06/20 05:10:00;;;;;;;;;;;35.20;54.90;;;;;;1912151;75;20122;-83
2021/06/20 05:12:29;;;;;;;;;;;35.30;54.20;;;;;;1911358;75;20170;-81
2021/06/20 05:14:59;;;;;;;;;;;35.40;53.90;;;;;;1906853;75;20177;-82
2021/06/20 05:17:29;;;;;;;;;;;35.40;53.30;;;;;;1910891;75;20271;-82
2021/06/20 05:20:05;;;;;;;;;;;35.40;53.80;;;;;;1912053;75;20443;-81
2021/06/20 05:22:36;;;;;;;;;;;35.40;53.90;;;;;;1910291;75;20772;-82
2021/06/20 05:25:06;;;;;;;;;;;35.40;53.00;;;;;;1909560;75;20217;-81
2021/06/20 05:27:36;;;;;;;;;;;35.50;53.50;;;;;;1911826;74;20185;-80
2021/06/20 05:30:06;;;;;;;;;;;35.50;53.70;;;;;;1910442;74;20215;-81
2021/06/20 05:32:36;;;;;;;;;;;35.50;53.00;;;;;;1908186;74;20201;-81
2021/06/20 05:35:06;;;;;;;;;;;35.40;53.30;;;;;;1906012;74;20221;-80
2021/06/20 05:37:36;;;;;;;;;;;35.40;53.20;;;;;;1906799;74;20232;-78
2021/06/20 05:40:06;;;;;;;;;;;35.30;53.40;;;;;;1909440;74;20567;-78
2021/06/20 05:42:35;;;;;;;;;;;35.30;54.00;;;;;;1906652;74;20219;-78
2021/06/20 05:45:07;;;;;;;;;;;35.40;53.80;;;;;;1901678;74;20257;-80
2021/06/20 05:47:38;;;;;;;;;;;35.30;54.10;;;;;;1892355;75;20170;-82
2021/06/20 05:50:08;;;;;;;;;;;35.50;54.10;;;;;;1891151;74;20230;-80
2021/06/20 05:52:37;;;;;;;;;;;35.50;53.40;;;;;;1860856;76;20217;-81
2021/06/20 05:55:08;;;;;;;;;;;35.70;52.70;;;;;;1892571;75;20266;-81
2021/06/20 05:57:42;;;;;;;;;;;35.70;52.70;;;;;;1891578;76;20202;-78
2021/06/20 06:00:12;;;;;;;;;;;35.70;53.50;;;;;;1893557;76;20179;-79
2021/06/20 06:02:42;;;;;;;;;;;35.60;53.50;;;;;;1894975;76;20270;-78
2021/06/20 06:05:12;;;;;;;;;;;35.60;53.10;;;;;;1895792;74;20163;-77
2021/06/20 06:07:44;;;;;;;;;;;35.50;53.20;;;;;;1891913;76;20179;-78
2021/06/20 06:10:15;;;;;;;;;;;35.40;53.90;;;;;;1891640;74;20265;-83
2021/06/20 06:12:47;;;;;;;;;;;35.50;54.10;;;;;;1894065;76;20193;-92
2021/06/20 06:15:22;;;;;;;;;;;35.50;53.30;;;;;;1896518;74;20167;-88
2021/06/20 06:17:53;;;;;;;;;;;35.60;53.70;;;;;;1901912;74;20423;-85
2021/06/20 06:22:59;;;;;;;;;;;35.60;53.20;;;;;;1836616;75;20272;-93
2021/06/20 06:25:30;;;;;;;;;;;35.60;53.60;;;;;;1827321;76;20188;-93
2021/06/20 06:28:04;;;;;;;;;;;35.60;53.20;;;;;;1785266;78;20217;-94
2021/06/20 06:30:33;;;;;;;;;;;35.60;54.00;;;;;;1814800;77;20130;-96
2021/06/20 06:33:04;;;;;;;;;;;35.60;54.20;;;;;;1795575;78;20210;-96
2021/06/20 06:35:34;;;;;;;;;;;35.60;53.60;;;;;;1795732;78;20143;-95
2021/06/20 06:38:06;;;;;;;;;;;35.60;53.40;;;;;;1799520;78;20198;-93
2021/06/20 06:40:36;;;;;;;;;;;35.50;54.20;;;;;;1794617;78;20482;-92
2021/06/20 06:43:06;;;;;;;;;;;35.60;52.90;;;;;;1789314;80;20223;-94
2021/06/20 06:45:37;;;;;;;;;;;35.60;53.10;;;;;;1841094;76;20335;-95
2021/06/20 06:48:10;;;;;;;;;;;35.50;53.20;;;;;;1846802;76;20175;-94
2021/06/20 06:50:41;;;;;;;;;;;35.60;53.60;;;;;;1846646;76;20194;-92
2021/06/20 06:53:12;;;;;;;;;;;35.60;53.60;;;;;;1846749;76;20292;-93
2021/06/20 06:55:41;;;;;;;;;;;35.80;52.70;;;;;;1845773;76;20290;-96
2021/06/20 06:58:11;;;;;;;;;;;35.80;53.20;;;;;;1842263;76;20217;-93
2021/06/20 07:00:43;;;;;;;;;;;35.90;52.80;;;;;;1843058;76;20250;-95
2021/06/20 07:03:13;;;;;;;;;;;35.90;52.70;;;;;;1841711;76;20743;-95
2021/06/20 07:05:43;;;;;;;;;;;35.90;52.30;;;;;;1840995;76;20123;-93
2021/06/20 07:08:13;;;;;;;;;;;35.90;53.20;;;;;;1814891;78;20184;-95
2021/06/20 07:10:43;;;;;;;;;;;35.90;52.10;;;;;;1772334;80;20329;-92
2021/06/20 07:13:12;;;;;;;;;;;35.90;53.10;;;;;;1794827;80;20222;-93
2021/06/20 07:15:43;;;;;;;;;;;35.90;52.40;;;;;;1789875;80;20227;-91
2021/06/20 07:18:15;;;;;;;;;;;35.80;52.40;;;;;;1789227;80;20185;-93
2021/06/20 07:20:44;;;;;;;;;;;35.80;52.60;;;;;;1790249;78;20190;-93
2021/06/20 07:23:14;;;;;;;;;;;35.80;53.20;;;;;;1778730;78;20243;-93
2021/06/20 07:25:49;;;;;;;;;;;35.70;53.20;;;;;;1829525;77;20135;-93
2021/06/20 07:28:16;;;;;;;;;;;35.80;52.80;;;;;;1826067;77;20268;-93
2021/06/20 07:30:48;;;;;;;;;;;35.70;51.90;;;;;;1819320;78;20206;-92
2021/06/20 07:33:18;;;;;;;;;;;35.80;53.40;;;;;;1824254;77;20159;-94
2021/06/20 07:35:57;;;;;;;;;;;35.90;52.30;;;;;;1830042;77;20227;-91
2021/06/20 07:38:19;;;;;;;;;;;36.00;52.20;;;;;;1770343;80;20211;-93
2021/06/20 07:40:49;;;;;;;;;;;36.00;53.00;;;;;;1769713;80;20551;-90
2021/06/20 07:43:22;;;;;;;;;;;;;;;;;;1772506;79;20215;-89
2021/06/20 07:45:50;;;;;;;;;;;36.10;51.70;;;;;;1775761;79;20222;-93
2021/06/20 07:48:20;;;;;;;;;;;36.20;51.80;;;;;;1775163;79;20191;-94
2021/06/20 07:50:49;;;;;;;;;;;36.20;52.10;;;;;;1778239;80;20543;-92
2021/06/20 07:53:19;;;;;;;;;;;36.30;51.50;;;;;;1775311;80;20337;-92
2021/06/20 07:55:49;;;;;;;;;;;36.20;50.70;;;;;;1769756;79;20239;-91
2021/06/20 07:58:18;;;;;;;;;;;36.20;50.20;;;;;;1773651;80;20231;-92
2021/06/20 08:00:48;;;;;;;;;;;36.20;51.40;;;;;;1780014;79;20137;-92
2021/06/20 08:03:18;;;;;;;;;;;36.20;50.80;;;;;;1778153;79;20254;-92
2021/06/20 08:05:48;;;;;;;;;;;36.20;50.50;;;;;;1803726;79;20141;-95
2021/06/20 08:08:20;;;;;;;;;;;36.30;49.70;;;;;;1772038;80;20159;-93
2021/06/20 08:10:50;;;;;;;;;;;36.30;50.20;;;;;;1768732;80;20871;-93
2021/06/20 08:13:20;;;;;;;;;;;36.30;49.50;;;;;;1755499;80;20218;-91
2021/06/20 08:15:54;;;;;;;;;;;36.30;50.00;;;;;;1784475;79;20188;-93
2021/06/20 08:18:23;;;;;;;;;;;36.20;49.80;;;;;;1782503;80;20184;-92
2021/06/20 08:20:53;;;;;;;;;;;36.10;50.20;;;;;;1790366;79;20228;-88
2021/06/20 08:23:23;;;;;;;;;;;36.20;49.10;;;;;;1785152;79;20202;-93
2021/06/20 08:25:52;;;;;;;;;;;36.30;48.00;;;;;;1792380;79;20177;-94
2021/06/20 08:28:23;;;;;;;;;;;36.30;47.70;;;;;;1793892;79;20269;-92
2021/06/20 08:30:52;;;;;;;;;;;36.30;48.40;;;;;;1781598;79;20219;-92
2021/06/20 08:33:22;;;;;;;;;;;36.20;48.50;;;;;;1789275;78;20507;-94
2021/06/20 08:35:51;;;;;;;;;;;36.20;48.70;;;;;;1788824;79;20542;-95
2021/06/20 08:38:21;;;;;;;;;;;36.20;49.00;;;;;;1788670;79;20238;-94
2021/06/20 08:40:51;;;;;;;;;;;36.20;48.40;;;;;;1781168;79;20147;-92
2021/06/20 08:43:21;;;;;;;;;;;36.30;48.20;;;;;;1769427;78;20281;-92
2021/06/20 08:45:51;;;;;;;;;;;36.30;49.10;;;;;;1771647;80;20163;-92
2021/06/20 08:48:22;;;;;;;;;;;36.40;48.80;;;;;;1768883;80;20223;-94
2021/06/20 08:50:55;;;;;;;;;;;36.30;48.20;;;;;;1769768;81;20161;-94
2021/06/20 08:53:25;;;;;;;;;;;36.30;48.40;;;;;;1763690;80;20194;-94
2021/06/20 08:55:54;;;;;;;;;;;36.20;48.50;;;;;;1792323;78;20212;-94
2021/06/20 08:58:26;;;;;;;;;;;36.20;48.40;;;;;;1815000;79;20227;-93
2021/06/20 09:00:59;;;;;;;;;;;36.10;49.60;;;;;;1780892;80;20250;-95
2021/06/20 09:03:30;;;;;;;;;;;36.20;48.90;;;;;;1778724;80;20175;-95
2021/06/20 09:06:00;;;;;;;;;;;36.20;49.20;;;;;;1829477;78;20202;-95
2021/06/20 09:08:31;;;;;;;;;;;36.20;49.40;;;;;;1828269;78;20214;-94
2021/06/20 09:11:01;;;;;;;;;;;36.20;49.00;;;;;;1830140;78;20478;-95
2021/06/20 09:13:32;;;;;;;;;;;36.10;49.10;;;;;;1825581;78;20464;-95
2021/06/20 09:16:05;;;;;;;;;;;36.10;48.40;;;;;;1827000;78;20136;-91
2021/06/20 09:18:35;;;;;;;;;;;36.10;48.90;;;;;;1824085;76;20159;-91
2021/06/20 09:21:06;;;;;;;;;;;36.10;49.40;;;;;;1822698;77;20159;-92
2021/06/20 09:23:38;;;;;;;;;;;36.10;49.30;;;;;;1816867;78;20185;-92
2021/06/20 09:26:07;;;;;;;;;;;36.10;49.60;;;;;;1799528;79;20288;-92
2021/06/20 09:28:37;;;;;;;;;;;36.10;49.20;;;;;;1795093;79;20190;-91
2021/06/20 09:31:07;;;;;;;;;;;36.10;49.30;;;;;;1811463;79;20156;-93
2021/06/20 09:33:41;;;;;;;;;;;36.10;49.10;;;;;;1797988;79;20195;-94
2021/06/20 09:36:12;;;;;;;;;;;36.20;49.40;;;;;;1780146;79;20187;-95
2021/06/20 09:38:45;;;;;;;;;;;36.20;48.90;;;;;;1801048;79;20524;-96
2021/06/20 09:41:16;;;;;;;;;;;36.10;48.80;;;;;;1778902;79;20203;-93
2021/06/20 09:43:47;;;;;;;;;;;36.10;50.00;;;;;;1802569;79;20206;-95
2021/06/20 09:46:16;;;;;;;;;;;36.00;49.60;;;;;;1795116;79;20179;-96
2021/06/20 09:48:47;;;;;;;;;;;36.10;49.60;;;;;;1801600;79;20504;-96
2021/06/20 09:51:19;;;;;;;;;;;36.00;50.00;;;;;;1803716;79;20234;-96
2021/06/20 09:53:51;;;;;;;;;;;35.90;50.70;;;;;;1804518;79;20198;-95
2021/06/20 09:56:49;;;;;;;;;;;35.90;50.60;;;;;;1800428;77;20204;-90
2021/06/20 09:59:42;;;;;;;;;;;35.80;51.20;;;;;;1797891;79;20166;-95
2021/06/20 10:02:19;;;;;;;;;;;35.80;51.50;;;;;;1798766;79;20212;-96
2021/06/20 10:04:50;;;;;;;;;;;35.80;51.60;;;;;;1803780;79;20237;-92
2021/06/20 10:07:28;;;;;;;;;;;35.80;51.00;;;;;;1801680;79;20175;-92
2021/06/20 10:09:51;;;;;;;;;;;35.80;50.10;;;;;;1804084;79;20210;-92
2021/06/20 10:12:22;;;;;;;;;;;35.80;51.10;;;;;;1887802;73;20499;-93
2021/06/20 10:14:54;;;;;;;;;;;35.80;51.10;;;;;;1802873;78;20184;-91
2021/06/20 10:17:29;;;;;;;;;;;35.80;50.70;;;;;;1801459;77;20170;-93
2021/06/20 10:20:27;;;;;;;;;;;35.80;50.20;;;;;;1817662;72;20215;-91
2021/06/20 10:23:08;;;;;;;;;;;35.80;50.20;;;;;;1838367;73;20243;-93
2021/06/20 10:25:41;;;;;;;;;;;35.80;50.70;;;;;;1824766;77;20204;-92
2021/06/20 10:28:13;;;;;;;;;;;35.80;50.30;;;;;;1906261;73;20088;-92
2021/06/20 10:30:44;;;;;;;;;;;35.80;51.00;;;;;;1899926;73;20132;-94
2021/06/20 10:33:21;;;;;;;;;;;35.80;50.70;;;;;;1895644;75;20245;-94
2021/06/20 10:35:51;;;;;;;;;;;35.70;51.20;;;;;;1904860;74;20240;-91
2021/06/20 10:38:43;;;;;;;;;;;35.70;51.70;;;;;;1904565;74;20126;-94
2021/06/20 10:43:55;;;;;;;;;;;35.60;51.00;;;;;;1906583;70;20210;-90
2021/06/20 10:46:28;;;;;;;;;;;35.60;51.40;;;;;;1893073;75;20150;-93
2021/06/20 10:49:06;;;;;;;;;;;35.50;51.60;;;;;;1885686;74;20097;-93
2021/06/20 10:52:05;;;;;;;;;;;;;;;;;;;;;
2021/06/20 10:54:53;;;;;;;;;;;35.40;51.40;;;;;;1845007;76;20195;-95
2021/06/20 10:57:26;;;;;;;;;;;35.40;52.50;;;;;;1815081;77;20253;-93
2021/06/20 11:00:04;;;;;;;;;;;35.30;52.10;;;;;;1909207;73;20179;-94
2021/06/20 11:02:37;;;;;;;;;;;35.30;52.50;;;;;;1910024;73;20242;-94
2021/06/20 11:05:24;;;;;;;;;;;35.30;52.40;;;;;;1922515;73;20521;-92
2021/06/20 11:07:59;;;;;;;;;;;35.20;52.50;;;;;;1912434;74;20218;-92
2021/06/20 11:10:30;;;;;;;;;;;35.20;52.60;;;;;;1914162;73;20193;-92
2021/06/20 11:13:04;;;;;;;;;;;35.10;53.00;;;;;;1896505;74;20175;-93
2021/06/20 11:15:32;;;;;;;;;;;35.10;53.30;;;;;;1904938;74;20206;-92
2021/06/20 11:18:02;;;;;;;;;;;35.10;53.50;;;;;;1941451;73;20190;-92
2021/06/20 11:20:33;;;;;;;;;;;35.10;53.70;;;;;;1913546;72;20210;-93
2021/06/20 11:23:03;;;;;;;;;;;35.10;53.90;;;;;;1913231;73;20202;-93
2021/06/20 11:25:33;;;;;;;;;;;35.00;54.10;;;;;;1907434;73;20210;-92
2021/06/20 11:28:02;;;;;;;;;;;35.10;54.40;;;;;;1926466;73;20148;-90
2021/06/20 11:30:32;;;;;;;;;;;35.00;54.50;;;;;;1850496;76;20207;-92
2021/06/20 11:33:06;;;;;;;;;;;34.90;54.70;;;;;;1854740;76;20166;-90
2021/06/20 11:35:38;;;;;;;;;;;34.90;55.00;;;;;;1928240;73;20182;-92
2021/06/20 11:38:08;;;;;;;;;;;34.90;55.20;;;;;;1880059;75;20183;-92
2021/06/20 11:40:38;;;;;;;;;;;34.80;55.30;;;;;;1853308;76;20173;-91
2021/06/20 11:43:08;;;;;;;;;;;34.70;55.40;;;;;;1854753;76;20220;-92
2021/06/20 11:45:39;;;;;;;;;;;34.70;55.60;;;;;;1904806;74;20119;-94
2021/06/20 11:48:09;;;;;;;;;;;34.70;55.80;;;;;;1916583;74;20200;-91
2021/06/20 11:50:41;;;;;;;;;;;34.60;56.00;;;;;;1910789;73;20215;-92
2021/06/20 11:53:10;;;;;;;;;;;34.60;56.20;;;;;;1907271;74;20202;-93
2021/06/20 11:55:43;;;;;;;;;;;34.50;56.40;;;;;;1890433;75;20190;-93
2021/06/20 11:58:14;;;;;;;;;;;34.50;56.60;;;;;;1919814;73;20188;-93
2021/06/20 12:00:45;;;;;;;;;;;34.50;56.70;;;;;;1924585;73;20247;-90
2021/06/20 12:03:16;;;;;;;;;;;34.40;56.80;;;;;;1908504;73;20228;-94
2021/06/20 12:05:47;;;;;;;;;;;34.40;57.00;;;;;;1915944;73;20160;-92
2021/06/20 12:08:19;;;;;;;;;;;34.40;56.90;;;;;;1917902;73;20169;-94
2021/06/20 12:10:49;;;;;;;;;;;34.30;57.00;;;;;;1909811;73;20575;-93
2021/06/20 12:13:21;;;;;;;;;;;34.30;57.20;;;;;;1928834;73;20176;-94
2021/06/20 12:15:52;;;;;;;;;;;34.30;57.30;;;;;;1880358;75;20230;-92
2021/06/20 12:18:24;;;;;;;;;;;34.20;57.50;;;;;;1882997;75;20221;-91
2021/06/20 12:20:53;;;;;;;;;;;34.20;57.60;;;;;;1862784;75;20173;-92
2021/06/20 12:23:23;;;;;;;;;;;34.20;57.90;;;;;;1912036;73;20271;-93
2021/06/20 12:26:00;;;;;;;;;;;34.10;58.00;;;;;;1912542;73;20244;-89
2021/06/20 12:28:29;;;;;;;;;;;34.10;58.20;;;;;;1910750;73;20115;-91
2021/06/20 12:30:58;;;;;;;;;;;34.10;58.30;;;;;;1911840;73;20235;-91
2021/06/20 12:33:28;;;;;;;;;;;34.00;58.00;;;;;;1930714;73;20193;-92
2021/06/20 12:36:04;;;;;;;;;;;34.00;58.20;;;;;;1908186;73;20227;-93
2021/06/20 12:38:34;;;;;;;;;;;34.00;58.50;;;;;;1894253;73;20203;-93
2021/06/20 12:41:06;;;;;;;;;;;34.00;58.60;;;;;;1906098;73;20194;-92
2021/06/20 12:43:37;;;;;;;;;;;34.00;59.00;;;;;;1924041;73;20215;-92
2021/06/20 12:46:10;;;;;;;;;;;33.90;59.70;;;;;;1920252;73;20220;-91
2021/06/20 12:48:48;;;;;;;;;;;33.80;59.90;;;;;;1921585;73;20176;-92
2021/06/20 12:51:21;;;;;;;;;;;33.70;60.60;;;;;;1919433;73;20493;-92
2021/06/20 12:53:54;;;;;;;;;;;33.70;61.00;;;;;;1922095;73;20287;-91
2021/06/20 12:56:28;;;;;;;;;;;33.60;61.40;;;;;;1926860;73;20441;-93
2021/06/20 12:58:57;;;;;;;;;;;33.60;61.30;;;;;;1921780;73;20182;-92
2021/06/20 13:01:33;;;;;;;;;;;33.40;61.70;;;;;;1873175;75;20172;-92
2021/06/20 13:04:17;;;;;;;;;;;33.30;62.20;;;;;;1918562;73;20211;-90
2021/06/20 13:07:04;;;;;;;;;;;33.20;62.30;;;;;;1888758;75;20164;-93
2021/06/20 13:09:34;;;;;;;;;;;33.00;62.50;;;;;;1855773;76;20153;-91
2021/06/20 13:12:04;;;;;;;;;;;32.90;63.00;;;;;;1886690;75;20225;-92
2021/06/20 13:14:35;;;;;;;;;;;32.80;63.40;;;;;;1826395;77;20169;-92
2021/06/20 13:17:05;;;;;;;;;;;32.70;64.00;;;;;;1872504;76;20234;-92
2021/06/20 13:19:35;;;;;;;;;;;32.60;64.00;;;;;;1874220;75;20229;-94
2021/06/20 13:22:15;;;;;;;;;;;32.60;64.30;;;;;;1917713;73;20171;-94
2021/06/20 13:24:46;;;;;;;;;;;32.50;64.50;;;;;;1916074;73;20191;-90
2021/06/20 13:27:20;;;;;;;;;;;32.40;64.80;;;;;;1914283;73;20188;-94
2021/06/20 13:29:50;;;;;;;;;;;32.40;65.00;;;;;;1894967;75;20233;-95
2021/06/20 13:32:22;;;;;;;;;;;32.30;65.10;;;;;;1909294;75;20131;-93
2021/06/20 13:34:52;;;;;;;;;;;32.30;65.30;;;;;;1910681;73;20157;-95
2021/06/20 13:37:24;;;;;;;;;;;32.30;65.60;;;;;;1923580;73;20117;-95
2021/06/20 13:39:57;;;;;;;;;;;32.30;65.80;;;;;;1893098;75;20166;-95
2021/06/20 13:42:27;;;;;;;;;;;32.20;65.50;;;;;;1898681;75;20130;-92
2021/06/20 13:44:58;;;;;;;;;;;32.20;65.40;;;;;;1915368;74;20165;-94
2021/06/20 13:47:29;;;;;;;;;;;32.20;65.50;;;;;;1910643;73;20263;-95
2021/06/20 13:49:58;;;;;;;;;;;32.20;66.00;;;;;;1883815;75;20159;-90
2021/06/20 13:52:29;;;;;;;;;;;32.20;65.70;;;;;;1887634;75;20197;-94
2021/06/20 13:55:05;;;;;;;;;;;32.20;66.30;;;;;;1880085;74;20273;-93
2021/06/20 13:57:30;;;;;;;;;;;32.20;67.00;;;;;;1887281;74;20391;-92
2021/06/20 14:00:03;;;;;;;;;;;32.10;66.10;;;;;;1850919;76;20186;-92
2021/06/20 14:02:33;;;;;;;;;;;32.00;66.50;;;;;;1817022;77;20212;-94
2021/06/20 14:05:05;;;;;;;;;;;32.00;66.90;;;;;;1855640;76;20147;-92
2021/06/20 14:07:35;;;;;;;;;;;32.00;67.00;;;;;;1848424;76;20212;-92
2021/06/20 14:10:06;;;;;;;;;;;31.90;67.20;;;;;;1877381;74;20261;-94
2021/06/20 14:12:36;;;;;;;;;;;31.90;67.40;;;;;;1883373;74;20187;-95
2021/06/20 14:15:06;;;;;;;;;;;31.90;67.30;;;;;;1876769;74;20155;-94
2021/06/20 14:17:36;;;;;;;;;;;31.90;67.40;;;;;;1884982;74;20152;-93
2021/06/20 14:20:07;;;;;;;;;;;31.80;67.40;;;;;;1901463;74;20283;-92
2021/06/20 14:22:40;;;;;;;;;;;31.80;67.40;;;;;;1883858;74;20181;-92
2021/06/20 14:25:15;;;;;;;;;;;31.80;67.10;;;;;;1866766;74;20415;-93
2021/06/20 14:27:58;;;;;;;;;;;31.80;67.20;;;;;;1891669;74;20225;-92
2021/06/20 14:30:29;;;;;;;;;;;31.90;67.20;;;;;;1876569;74;20230;-91
2021/06/20 14:32:58;;;;;;;;;;;31.90;67.10;;;;;;1894121;74;20157;-88
2021/06/20 14:35:28;;;;;;;;;;;31.80;67.20;;;;;;1904308;74;20203;-93
2021/06/20 14:37:58;;;;;;;;;;;31.80;67.50;;;;;;1912123;73;20180;-89
2021/06/20 14:40:30;;;;;;;;;;;31.80;67.70;;;;;;1895918;74;20141;-91
2021/06/20 14:43:03;;;;;;;;;;;31.80;67.80;;;;;;1901463;74;20206;-93
2021/06/20 14:45:31;;;;;;;;;;;31.70;68.10;;;;;;1897260;74;20190;-94
2021/06/20 14:48:01;;;;;;;;;;;31.70;68.40;;;;;;1902944;74;20540;-93